Time;durP1;ratioP1;P1;durP2;ratioP2;P2;SDS_P1;SDS_P2;PMS_P1;PMS_P2;Temp;Humidity;BMP_temperature;BMP_pressure;BME280_temperature;BME280_humidity;BME280_pressure;Samples;Min_cycle;Max_cycle;Signal;HPM_P1;HPM_P2
2023/09/24 00:00:58;;;;;;;0.20;0.20;;;11.90;99.90;;;;;;5099062;28;20467;-79
2023/09/24 00:03:26;;;;;;;0.20;0.20;;;11.90;99.90;;;;;;5104897;28;20466;-79
2023/09/24 00:05:52;;;;;;;0.10;0.10;;;11.80;99.90;;;;;;5085241;28;20460;-79
2023/09/24 00:08:18;;;;;;;0.20;0.20;;;11.80;99.90;;;;;;5074554;28;21434;-79
2023/09/24 00:10:50;;;;;;;0.20;0.20;;;11.60;99.90;;;;;;5089088;28;20447;-80
2023/09/24 00:13:16;;;;;;;0.20;0.20;;;11.50;99.90;;;;;;5089053;28;20897;-80
2023/09/24 00:15:41;;;;;;;0.20;0.20;;;11.60;99.90;;;;;;5084686;28;20530;-80
2023/09/24 00:18:07;;;;;;;0.20;0.20;;;11.60;99.90;;;;;;5088714;28;20214;-80
2023/09/24 00:20:33;;;;;;;0.10;0.10;;;11.70;99.90;;;;;;5077217;28;20209;-80
2023/09/24 00:22:58;;;;;;;0.20;0.20;;;11.70;99.90;;;;;;5100427;28;20808;-79
2023/09/24 00:25:25;;;;;;;0.20;0.20;;;11.70;99.90;;;;;;5080999;28;20675;-79
2023/09/24 00:27:51;;;;;;;0.20;0.20;;;11.80;99.90;;;;;;5081946;28;20177;-80
2023/09/24 00:30:17;;;;;;;0.10;0.10;;;11.70;99.90;;;;;;5089318;28;20926;-80
2023/09/24 00:32:42;;;;;;;0.10;0.10;;;11.60;99.90;;;;;;5104992;28;20272;-79
2023/09/24 00:35:08;;;;;;;0.10;0.10;;;11.70;99.90;;;;;;5092781;28;20220;-79
2023/09/24 00:37:33;;;;;;;0.20;0.20;;;11.70;99.90;;;;;;5074312;28;20178;-80
2023/09/24 00:39:59;;;;;;;0.10;0.10;;;11.70;99.90;;;;;;5090781;28;20627;-79
2023/09/24 00:42:28;;;;;;;0.10;0.10;;;11.70;99.90;;;;;;5097003;28;20235;-79
2023/09/24 00:44:53;;;;;;;0.10;0.10;;;11.70;99.90;;;;;;5084978;28;20180;-79
2023/09/24 00:47:19;;;;;;;0.20;0.20;;;11.70;99.90;;;;;;5089621;28;20500;-80
2023/09/24 00:49:45;;;;;;;0.20;0.20;;;11.60;99.90;;;;;;5091713;28;20443;-80
2023/09/24 00:52:11;;;;;;;0.10;0.10;;;11.60;99.90;;;;;;5098711;28;20188;-80
2023/09/24 00:54:38;;;;;;;0.20;0.20;;;11.50;99.90;;;;;;5089858;28;20315;-80
2023/09/24 00:57:05;;;;;;;0.07;0.07;;;11.50;99.90;;;;;;5065715;28;20857;-79
2023/09/24 00:59:31;;;;;;;0.20;0.20;;;11.50;99.90;;;;;;5076464;28;22339;-80
2023/09/24 01:01:57;;;;;;;0.20;0.20;;;11.50;99.90;;;;;;5078531;28;20466;-79
2023/09/24 01:04:22;;;;;;;0.20;0.20;;;11.50;99.90;;;;;;5097240;28;20216;-80
2023/09/24 01:06:49;;;;;;;0.20;0.20;;;11.50;99.90;;;;;;5084278;28;20467;-79
2023/09/24 01:09:16;;;;;;;0.20;0.20;;;11.40;99.90;;;;;;5088862;28;20227;-80
2023/09/24 01:11:42;;;;;;;0.20;0.20;;;11.40;99.90;;;;;;5092478;28;20455;-79
2023/09/24 01:14:08;;;;;;;0.20;0.20;;;11.40;99.90;;;;;;5070844;28;20842;-79
2023/09/24 01:16:33;;;;;;;0.20;0.20;;;11.40;99.90;;;;;;5103032;28;20516;-80
2023/09/24 01:18:59;;;;;;;0.20;0.20;;;11.40;99.90;;;;;;5090572;28;20216;-80
2023/09/24 01:21:27;;;;;;;0.20;0.20;;;11.40;99.90;;;;;;5098970;28;20184;-80
2023/09/24 01:23:54;;;;;;;0.20;0.20;;;11.40;99.90;;;;;;5094723;28;20176;-80
2023/09/24 01:26:21;;;;;;;0.20;0.20;;;11.50;99.90;;;;;;5057808;28;20477;-79
2023/09/24 01:28:47;;;;;;;0.10;0.10;;;11.50;99.90;;;;;;5092345;28;20471;-80
2023/09/24 01:31:15;;;;;;;0.10;0.10;;;11.40;99.90;;;;;;5098357;28;20427;-80
2023/09/24 01:33:41;;;;;;;0.20;0.20;;;11.40;99.90;;;;;;5075233;28;20710;-79
2023/09/24 01:36:10;;;;;;;0.20;0.20;;;11.50;99.90;;;;;;5082847;28;20447;-80
2023/09/24 01:38:40;;;;;;;0.20;0.20;;;11.40;99.90;;;;;;5069889;28;20189;-79
2023/09/24 01:41:10;;;;;;;0.20;0.20;;;11.40;99.90;;;;;;5088435;28;20521;-80
2023/09/24 01:43:36;;;;;;;0.10;0.10;;;11.50;99.90;;;;;;5091470;28;20446;-79
2023/09/24 01:46:05;;;;;;;0.10;0.10;;;11.40;99.90;;;;;;5082357;28;21020;-79
2023/09/24 01:48:32;;;;;;;0.20;0.20;;;11.40;99.90;;;;;;5086117;28;20447;-80
2023/09/24 01:50:59;;;;;;;0.10;0.10;;;11.40;99.90;;;;;;5070095;28;21261;-80
2023/09/24 01:53:25;;;;;;;0.20;0.20;;;11.40;99.90;;;;;;5076739;28;20905;-79
2023/09/24 01:55:52;;;;;;;0.10;0.10;;;11.40;99.90;;;;;;5091144;28;20554;-79
2023/09/24 01:58:17;;;;;;;0.20;0.20;;;11.30;99.90;;;;;;5089197;28;20536;-79
2023/09/24 02:00:44;;;;;;;0.10;0.10;;;11.30;99.90;;;;;;5061210;28;20463;-80
2023/09/24 02:03:10;;;;;;;0.07;0.07;;;11.30;99.90;;;;;;5103373;28;20184;-80
2023/09/24 02:05:39;;;;;;;0.20;0.20;;;11.40;99.90;;;;;;5096043;28;20499;-79
2023/09/24 02:08:06;;;;;;;0.20;0.20;;;11.40;99.90;;;;;;5093307;28;20938;-81
2023/09/24 02:10:33;;;;;;;0.20;0.20;;;11.40;99.90;;;;;;5083312;28;20535;-80
2023/09/24 02:13:00;;;;;;;0.20;0.20;;;11.40;99.90;;;;;;5097846;28;20483;-80
2023/09/24 02:15:26;;;;;;;0.20;0.20;;;11.40;99.90;;;;;;5079288;28;20455;-80
2023/09/24 02:17:52;;;;;;;0.20;0.20;;;11.40;99.90;;;;;;5060250;28;20504;-80
2023/09/24 02:20:31;;;;;;;0.20;0.20;;;11.40;99.90;;;;;;5085647;28;20933;-80
2023/09/24 02:22:59;;;;;;;0.10;0.10;;;11.40;99.90;;;;;;5075872;28;20632;-80
2023/09/24 02:25:26;;;;;;;0.20;0.20;;;11.40;99.90;;;;;;5087091;28;20478;-80
2023/09/24 02:27:52;;;;;;;0.10;0.10;;;11.40;99.90;;;;;;5078006;28;20439;-80
2023/09/24 02:30:20;;;;;;;0.10;0.10;;;11.40;99.90;;;;;;5090881;28;20449;-80
2023/09/24 02:32:46;;;;;;;0.20;0.20;;;11.50;99.90;;;;;;5073972;28;20446;-80
2023/09/24 02:35:13;;;;;;;0.20;0.20;;;11.50;99.90;;;;;;5097033;28;20586;-80
2023/09/24 02:37:39;;;;;;;0.20;0.20;;;11.50;99.90;;;;;;5088523;28;20591;-80
2023/09/24 02:40:15;;;;;;;0.20;0.20;;;11.50;99.90;;;;;;5078382;28;20569;-80
2023/09/24 02:42:43;;;;;;;0.20;0.20;;;11.50;99.90;;;;;;5067830;28;20899;-80
2023/09/24 02:45:10;;;;;;;0.10;0.10;;;11.40;99.90;;;;;;5079842;28;20444;-79
2023/09/24 02:47:36;;;;;;;0.10;0.10;;;11.40;99.90;;;;;;5098275;28;20437;-80
2023/09/24 02:50:04;;;;;;;0.20;0.20;;;11.40;99.90;;;;;;5090625;28;20867;-80
2023/09/24 02:52:30;;;;;;;0.20;0.20;;;11.40;99.90;;;;;;5095310;28;20670;-80
2023/09/24 02:54:56;;;;;;;0.20;0.20;;;11.30;99.90;;;;;;5087857;28;20985;-80
2023/09/24 02:57:21;;;;;;;0.10;0.10;;;11.30;99.90;;;;;;5068592;28;20181;-79
2023/09/24 02:59:47;;;;;;;0.20;0.20;;;11.20;99.90;;;;;;5076487;28;20247;-80
2023/09/24 03:02:12;;;;;;;0.20;0.20;;;11.20;99.90;;;;;;5083953;28;20300;-80
2023/09/24 03:04:38;;;;;;;0.10;0.10;;;11.10;99.90;;;;;;5087939;28;20185;-80
2023/09/24 03:07:03;;;;;;;0.20;0.20;;;11.10;99.90;;;;;;5079587;28;20184;-80
2023/09/24 03:09:30;;;;;;;0.20;0.20;;;11.00;99.90;;;;;;5097631;28;20188;-80
2023/09/24 03:11:56;;;;;;;0.20;0.20;;;11.00;99.90;;;;;;5088812;28;20185;-80
2023/09/24 03:14:21;;;;;;;0.20;0.20;;;11.00;99.90;;;;;;5091697;28;20856;-80
2023/09/24 03:16:47;;;;;;;0.20;0.20;;;11.00;99.90;;;;;;5090188;28;20215;-80
2023/09/24 03:19:12;;;;;;;0.20;0.20;;;10.90;99.90;;;;;;5077484;28;20185;-80
2023/09/24 03:21:38;;;;;;;0.20;0.20;;;10.90;99.90;;;;;;5084118;28;20200;-78
2023/09/24 03:24:03;;;;;;;0.20;0.20;;;10.90;99.90;;;;;;5109439;28;20192;-77
2023/09/24 03:26:29;;;;;;;0.20;0.20;;;10.90;99.90;;;;;;5091735;28;20181;-77
2023/09/24 03:28:54;;;;;;;0.20;0.20;;;10.80;99.90;;;;;;5091664;28;20193;-79
2023/09/24 03:31:20;;;;;;;0.20;0.20;;;10.80;99.90;;;;;;5103839;28;20188;-80
2023/09/24 03:33:46;;;;;;;0.20;0.20;;;10.70;99.90;;;;;;5087106;28;20217;-80
2023/09/24 03:36:12;;;;;;;0.20;0.20;;;10.70;99.90;;;;;;5089446;28;20181;-80
2023/09/24 03:38:38;;;;;;;0.20;0.20;;;10.70;99.90;;;;;;5084026;28;20451;-80
2023/09/24 03:41:04;;;;;;;0.20;0.20;;;10.70;99.90;;;;;;5076939;28;20471;-80
2023/09/24 03:43:30;;;;;;;0.20;0.20;;;10.60;99.90;;;;;;5088894;28;20236;-80
2023/09/24 03:45:56;;;;;;;0.20;0.20;;;10.60;99.90;;;;;;5078919;28;20220;-78
2023/09/24 03:48:23;;;;;;;0.20;0.20;;;10.60;99.90;;;;;;5083323;28;20910;-78
2023/09/24 03:50:49;;;;;;;0.20;0.20;;;10.50;99.90;;;;;;5084228;28;20438;-80
2023/09/24 03:53:17;;;;;;;0.10;0.10;;;10.50;99.90;;;;;;5087342;28;20966;-80
2023/09/24 03:55:45;;;;;;;0.10;0.10;;;10.40;99.90;;;;;;5089643;28;20455;-79
2023/09/24 03:58:11;;;;;;;0.20;0.20;;;10.40;99.90;;;;;;5095398;28;20441;-79
2023/09/24 04:00:36;;;;;;;0.20;0.20;;;10.50;99.90;;;;;;5091130;28;20454;-80
2023/09/24 04:03:03;;;;;;;0.20;0.20;;;10.40;99.90;;;;;;5093158;27;20438;-80
2023/09/24 04:05:30;;;;;;;0.20;0.20;;;10.40;99.90;;;;;;5099722;28;20542;-80
2023/09/24 04:07:55;;;;;;;0.10;0.10;;;10.40;99.90;;;;;;5101851;28;21008;-80
2023/09/24 04:10:22;;;;;;;0.10;0.10;;;10.40;99.90;;;;;;5083100;28;20452;-80
2023/09/24 04:12:52;;;;;;;0.10;0.10;;;10.30;99.90;;;;;;5098027;28;20216;-80
2023/09/24 04:15:27;;;;;;;0.20;0.20;;;10.30;99.90;;;;;;5095194;28;20621;-80
2023/09/24 04:17:56;;;;;;;0.20;0.20;;;10.30;99.90;;;;;;5079390;28;20430;-80
2023/09/24 04:20:22;;;;;;;0.20;0.20;;;10.30;99.90;;;;;;5100781;28;20447;-80
2023/09/24 04:22:48;;;;;;;0.10;0.10;;;10.30;99.90;;;;;;5091394;28;20504;-79
2023/09/24 04:25:24;;;;;;;0.13;0.13;;;10.30;99.90;;;;;;5071157;28;21026;-80
2023/09/24 04:27:50;;;;;;;0.10;0.10;;;10.30;99.90;;;;;;5082493;28;20439;-79
2023/09/24 04:30:16;;;;;;;0.20;0.20;;;10.20;99.90;;;;;;5099723;28;20802;-80
2023/09/24 04:32:53;;;;;;;0.10;0.10;;;10.20;99.90;;;;;;5070628;28;20475;-79
2023/09/24 04:35:22;;;;;;;0.10;0.10;;;10.20;99.90;;;;;;5091629;28;20467;-80
2023/09/24 04:37:50;;;;;;;0.20;0.20;;;10.20;99.90;;;;;;5096895;28;20422;-80
2023/09/24 04:40:16;;;;;;;0.20;0.20;;;10.20;99.90;;;;;;5090111;28;20448;-79
2023/09/24 04:42:43;;;;;;;0.20;0.20;;;10.10;99.90;;;;;;5083314;28;20447;-80
2023/09/24 04:45:10;;;;;;;0.20;0.20;;;10.10;99.90;;;;;;5093377;28;20193;-79
2023/09/24 04:47:36;;;;;;;0.17;0.17;;;10.10;99.90;;;;;;5088702;28;20987;-80
2023/09/24 04:50:02;;;;;;;0.20;0.20;;;10.10;99.90;;;;;;5087869;28;20806;-77
2023/09/24 04:52:28;;;;;;;0.20;0.20;;;10.10;99.90;;;;;;5066456;28;20439;-77
2023/09/24 04:54:53;;;;;;;0.20;0.20;;;10.10;99.90;;;;;;5065679;28;20248;-77
2023/09/24 04:57:19;;;;;;;0.20;0.20;;;10.10;99.90;;;;;;5071819;28;20196;-77
2023/09/24 04:59:44;;;;;;;0.20;0.20;;;10.10;99.90;;;;;;5084551;28;20237;-77
2023/09/24 05:02:10;;;;;;;0.20;0.20;;;10.00;99.90;;;;;;5070667;28;20187;-77
2023/09/24 05:04:36;;;;;;;0.30;0.30;;;10.00;99.90;;;;;;5086399;28;20178;-77
2023/09/24 05:07:02;;;;;;;0.20;0.20;;;10.00;99.90;;;;;;5095369;28;20185;-78
2023/09/24 05:09:28;;;;;;;0.10;0.10;;;10.00;99.90;;;;;;5084072;28;20188;-78
2023/09/24 05:11:54;;;;;;;0.20;0.20;;;10.00;99.90;;;;;;5063953;28;20432;-78
2023/09/24 05:14:20;;;;;;;0.20;0.20;;;10.00;99.90;;;;;;5086580;28;20758;-77
2023/09/24 05:16:47;;;;;;;0.20;0.20;;;10.00;99.90;;;;;;5088682;28;20263;-78
2023/09/24 05:19:12;;;;;;;0.20;0.20;;;10.00;99.90;;;;;;5092172;28;20443;-79
2023/09/24 05:21:37;;;;;;;0.20;0.20;;;10.00;99.90;;;;;;5094917;28;21246;-80
2023/09/24 05:24:03;;;;;;;0.20;0.20;;;10.00;99.90;;;;;;5095681;28;20184;-78
2023/09/24 05:26:29;;;;;;;0.20;0.20;;;10.00;99.90;;;;;;5105872;28;20201;-79
2023/09/24 05:28:54;;;;;;;0.20;0.20;;;10.00;99.90;;;;;;5080074;28;20216;-79
2023/09/24 05:31:21;;;;;;;0.20;0.20;;;10.00;99.90;;;;;;5072666;28;20200;-78
2023/09/24 05:33:47;;;;;;;0.20;0.20;;;10.00;99.90;;;;;;5083080;28;20213;-80
2023/09/24 05:36:13;;;;;;;0.20;0.20;;;10.00;99.90;;;;;;5095975;28;20805;-80
2023/09/24 05:38:39;;;;;;;0.20;0.20;;;10.00;99.90;;;;;;5068932;28;20189;-80
2023/09/24 05:41:05;;;;;;;0.20;0.20;;;9.90;99.90;;;;;;5072355;28;20519;-81
2023/09/24 05:43:31;;;;;;;0.20;0.20;;;10.00;99.90;;;;;;5082338;28;20179;-80
2023/09/24 05:45:57;;;;;;;0.20;0.20;;;10.00;99.90;;;;;;5081918;28;20498;-80
2023/09/24 05:48:22;;;;;;;0.20;0.20;;;10.00;99.90;;;;;;5086655;28;20439;-80
2023/09/24 05:50:48;;;;;;;0.20;0.20;;;10.10;99.90;;;;;;5090675;28;20326;-80
2023/09/24 05:53:15;;;;;;;0.20;0.20;;;10.10;99.90;;;;;;5088149;28;20189;-80
2023/09/24 05:55:51;;;;;;;0.20;0.20;;;10.10;99.90;;;;;;5099749;28;20257;-79
2023/09/24 05:58:16;;;;;;;0.20;0.20;;;10.10;99.90;;;;;;5072963;28;21573;-80
2023/09/24 06:00:44;;;;;;;0.20;0.20;;;10.10;99.90;;;;;;5065031;28;20435;-80
2023/09/24 06:03:09;;;;;;;0.20;0.20;;;10.10;99.90;;;;;;5083170;28;20177;-80
2023/09/24 06:05:38;;;;;;;0.20;0.20;;;10.20;99.90;;;;;;5075415;28;20500;-79
2023/09/24 06:08:05;;;;;;;0.20;0.20;;;10.10;99.90;;;;;;5074224;28;20191;-80
2023/09/24 06:10:30;;;;;;;0.20;0.20;;;10.10;99.90;;;;;;5091625;28;20440;-80
2023/09/24 06:12:56;;;;;;;0.20;0.20;;;10.10;99.90;;;;;;5091898;28;20783;-77
2023/09/24 06:15:21;;;;;;;0.20;0.20;;;10.20;99.90;;;;;;5078547;28;20250;-77
2023/09/24 06:17:49;;;;;;;0.20;0.20;;;10.30;99.90;;;;;;5082922;28;20189;-77
2023/09/24 06:20:16;;;;;;;0.20;0.20;;;10.30;99.90;;;;;;5054989;28;20190;-78
2023/09/24 06:22:42;;;;;;;0.20;0.20;;;10.40;99.90;;;;;;5084343;28;20471;-78
2023/09/24 06:25:08;;;;;;;0.20;0.20;;;10.40;99.90;;;;;;5070475;28;21002;-79
2023/09/24 06:27:34;;;;;;;0.20;0.20;;;10.50;99.90;;;;;;5069741;28;20534;-77
2023/09/24 06:29:59;;;;;;;0.20;0.20;;;10.70;99.90;;;;;;5083538;28;20189;-80
2023/09/24 06:32:29;;;;;;;0.20;0.20;;;10.70;99.90;;;;;;5079873;28;20802;-81
2023/09/24 06:34:54;;;;;;;0.20;0.20;;;10.90;99.90;;;;;;5068275;28;20217;-80
2023/09/24 06:37:20;;;;;;;0.20;0.20;;;11.00;99.90;;;;;;5067552;28;20501;-80
2023/09/24 06:39:45;;;;;;;0.20;0.20;;;11.00;99.90;;;;;;5070642;28;20185;-80
2023/09/24 06:42:11;;;;;;;0.20;0.20;;;11.10;99.90;;;;;;5082931;28;20313;-80
2023/09/24 06:44:36;;;;;;;0.20;0.20;;;11.20;99.90;;;;;;5088511;28;20594;-79
2023/09/24 06:47:02;;;;;;;0.20;0.20;;;11.30;99.90;;;;;;5086774;28;20182;-79
2023/09/24 06:49:28;;;;;;;0.20;0.20;;;11.40;99.90;;;;;;5088182;28;20661;-80
2023/09/24 06:51:53;;;;;;;0.10;0.10;;;11.60;99.90;;;;;;5073285;28;20260;-80
2023/09/24 06:54:19;;;;;;;0.20;0.20;;;11.80;99.90;;;;;;5089883;28;20240;-80
2023/09/24 06:56:45;;;;;;;0.20;0.20;;;11.90;99.90;;;;;;5084941;28;20192;-79
2023/09/24 06:59:11;;;;;;;0.20;0.20;;;12.00;99.90;;;;;;5065723;28;20471;-79
2023/09/24 07:01:37;;;;;;;0.10;0.10;;;12.10;99.90;;;;;;5096663;28;20189;-80
2023/09/24 07:04:04;;;;;;;0.20;0.20;;;12.00;99.90;;;;;;5087050;28;20185;-80
2023/09/24 07:06:30;;;;;;;0.10;0.10;;;12.00;99.90;;;;;;5085976;28;20446;-80
2023/09/24 07:08:56;;;;;;;0.20;0.20;;;12.00;99.90;;;;;;5087725;28;20492;-80
2023/09/24 07:11:28;;;;;;;0.10;0.10;;;12.10;99.90;;;;;;5085592;28;20267;-80
2023/09/24 07:13:54;;;;;;;0.10;0.10;;;12.10;99.90;;;;;;5087949;28;20467;-80
2023/09/24 07:16:24;;;;;;;0.10;0.10;;;12.00;99.90;;;;;;5082082;28;20438;-80
2023/09/24 07:18:51;;;;;;;0.10;0.10;;;12.10;99.90;;;;;;5084531;28;20968;-79
2023/09/24 07:21:21;;;;;;;0.20;0.20;;;12.10;99.90;;;;;;5088025;28;20419;-80
2023/09/24 07:23:49;;;;;;;0.10;0.10;;;12.00;99.90;;;;;;5083826;28;20807;-78
2023/09/24 07:26:14;;;;;;;0.20;0.20;;;12.00;99.90;;;;;;5085516;28;20426;-80
2023/09/24 07:28:41;;;;;;;0.10;0.10;;;12.00;99.90;;;;;;5087424;28;20784;-80
2023/09/24 07:31:19;;;;;;;0.10;0.10;;;12.00;99.90;;;;;;5093128;28;20268;-79
2023/09/24 07:33:45;;;;;;;0.20;0.20;;;12.00;99.90;;;;;;5087516;28;20582;-80
2023/09/24 07:36:11;;;;;;;0.10;0.10;;;12.00;99.90;;;;;;5076953;28;20892;-79
2023/09/24 07:38:38;;;;;;;0.10;0.10;;;12.00;99.90;;;;;;5089086;28;20445;-79
2023/09/24 07:41:03;;;;;;;0.20;0.20;;;12.00;99.90;;;;;;5089850;28;20447;-79
2023/09/24 07:43:30;;;;;;;0.17;0.17;;;12.00;99.90;;;;;;5081550;28;20781;-80
2023/09/24 07:45:56;;;;;;;0.10;0.10;;;12.00;99.90;;;;;;5079539;28;20178;-80
2023/09/24 07:48:21;;;;;;;0.10;0.10;;;12.20;99.90;;;;;;5078567;28;20446;-81
2023/09/24 07:50:53;;;;;;;0.10;0.10;;;12.50;99.90;;;;;;5087453;28;20594;-80
2023/09/24 07:53:19;;;;;;;0.13;0.13;;;12.70;99.90;;;;;;5083293;28;20189;-80
2023/09/24 07:55:45;;;;;;;0.10;0.10;;;12.80;99.90;;;;;;5086839;28;20454;-80
2023/09/24 07:58:10;;;;;;;0.10;0.10;;;13.00;99.90;;;;;;5084071;28;20446;-80
2023/09/24 08:00:38;;;;;;;0.10;0.10;;;13.20;99.90;;;;;;5088299;28;20193;-81
2023/09/24 08:03:04;;;;;;;0.10;0.10;;;13.60;99.90;;;;;;5080056;28;20174;-81
2023/09/24 08:05:30;;;;;;;0.10;0.10;;;13.70;99.90;;;;;;5089468;28;20446;-81
2023/09/24 08:07:56;;;;;;;0.10;0.10;;;13.60;99.90;;;;;;5073187;28;20436;-81
2023/09/24 08:10:21;;;;;;;0.10;0.10;;;13.60;99.90;;;;;;5090734;28;20181;-80
2023/09/24 08:12:47;;;;;;;0.10;0.10;;;13.60;99.90;;;;;;5089329;28;20250;-81
2023/09/24 08:15:12;;;;;;;0.10;0.10;;;13.70;99.90;;;;;;5089731;28;20221;-80
2023/09/24 08:17:39;;;;;;;0.10;0.10;;;13.70;99.90;;;;;;5088544;28;20680;-79
2023/09/24 08:20:05;;;;;;;0.10;0.10;;;14.00;99.90;;;;;;5097827;28;20194;-81
2023/09/24 08:22:30;;;;;;;0.10;0.10;;;14.00;99.90;;;;;;5072276;28;20439;-80
2023/09/24 08:24:56;;;;;;;0.10;0.10;;;14.20;99.90;;;;;;5092532;28;20439;-80
2023/09/24 08:27:21;;;;;;;0.10;0.10;;;14.40;99.90;;;;;;5077917;28;20197;-80
2023/09/24 08:29:47;;;;;;;0.10;0.10;;;14.80;99.90;;;;;;5095407;28;20200;-81
2023/09/24 08:32:12;;;;;;;0.10;0.10;;;14.90;99.90;;;;;;5084052;28;20654;-80
2023/09/24 08:34:38;;;;;;;0.10;0.10;;;15.00;99.90;;;;;;5088241;28;20224;-81
2023/09/24 08:37:03;;;;;;;0.10;0.10;;;15.60;99.90;;;;;;5081561;28;20217;-82
2023/09/24 08:39:29;;;;;;;0.00;0.00;;;16.00;99.90;;;;;;5084140;28;20185;-81
2023/09/24 08:41:55;;;;;;;0.10;0.10;;;16.20;99.90;;;;;;5078047;28;20189;-82
2023/09/24 08:44:24;;;;;;;0.10;0.10;;;16.60;99.90;;;;;;5067023;28;20292;-81
2023/09/24 08:46:51;;;;;;;0.00;0.00;;;16.70;99.90;;;;;;5086038;28;21288;-81
2023/09/24 08:49:18;;;;;;;0.00;0.00;;;16.80;99.90;;;;;;5089985;28;20427;-81
2023/09/24 08:51:46;;;;;;;0.00;0.00;;;16.90;99.90;;;;;;5076936;28;20492;-80
2023/09/24 08:54:12;;;;;;;0.00;0.00;;;16.90;99.90;;;;;;5091166;28;20542;-80
2023/09/24 08:56:38;;;;;;;0.00;0.00;;;16.70;99.90;;;;;;5092648;28;20961;-80
2023/09/24 08:59:04;;;;;;;0.00;0.00;;;16.70;99.90;;;;;;5091300;28;20506;-82
2023/09/24 09:01:30;;;;;;;0.00;0.00;;;17.00;99.90;;;;;;5091298;28;21002;-80
2023/09/24 09:03:57;;;;;;;0.00;0.00;;;16.90;99.90;;;;;;5091582;28;20189;-80
2023/09/24 09:06:30;;;;;;;0.00;0.00;;;17.10;99.90;;;;;;5088602;28;20443;-82
2023/09/24 09:08:57;;;;;;;0.00;0.00;;;17.40;99.90;;;;;;5092977;28;20435;-80
2023/09/24 09:11:43;;;;;;;0.00;0.00;;;17.40;99.90;;;;;;5090530;28;20427;-80
2023/09/24 09:14:09;;;;;;;0.00;0.00;;;17.50;99.90;;;;;;5091173;28;20553;-82
2023/09/24 09:16:57;;;;;;;0.00;0.00;;;17.70;99.90;;;;;;5078854;28;20442;-80
2023/09/24 09:19:27;;;;;;;0.00;0.00;;;17.70;99.90;;;;;;5082335;28;20501;-81
2023/09/24 09:21:52;;;;;;;0.00;0.00;;;17.80;99.90;;;;;;5097254;28;20430;-81
2023/09/24 09:24:25;;;;;;;0.00;0.00;;;17.90;99.90;;;;;;5089551;28;20457;-82
2023/09/24 09:26:57;;;;;;;0.00;0.00;;;17.90;99.90;;;;;;5092931;28;20187;-80
2023/09/24 09:29:27;;;;;;;0.00;0.00;;;17.70;99.90;;;;;;5090187;28;20518;-80
2023/09/24 09:31:54;;;;;;;0.00;0.00;;;18.10;99.90;;;;;;5090502;28;20796;-80
2023/09/24 09:34:20;;;;;;;0.00;0.00;;;18.10;99.90;;;;;;5096407;28;20461;-81
2023/09/24 09:36:46;;;;;;;0.00;0.00;;;18.10;99.90;;;;;;5093632;28;20981;-81
2023/09/24 09:39:12;;;;;;;0.00;0.00;;;17.90;99.90;;;;;;5101111;28;20521;-79
2023/09/24 09:41:40;;;;;;;0.00;0.00;;;18.00;99.90;;;;;;5111787;28;20528;-80
2023/09/24 09:44:06;;;;;;;0.00;0.00;;;18.00;99.90;;;;;;5103800;28;20192;-79
2023/09/24 09:46:37;;;;;;;0.00;0.00;;;18.60;99.90;;;;;;5098728;28;20427;-81
2023/09/24 09:49:07;;;;;;;0.00;0.00;;;18.90;99.90;;;;;;5107274;28;20430;-81
2023/09/24 09:51:46;;;;;;;0.00;0.00;;;18.80;99.90;;;;;;5102590;28;20447;-80
2023/09/24 09:54:13;;;;;;;0.00;0.00;;;19.00;99.90;;;;;;5096089;28;20483;-80
2023/09/24 09:56:40;;;;;;;0.00;0.00;;;19.10;99.90;;;;;;5088227;28;20471;-80
2023/09/24 09:59:07;;;;;;;0.00;0.00;;;19.00;99.90;;;;;;5093373;28;20478;-81
2023/09/24 10:01:33;;;;;;;0.00;0.00;;;19.20;99.90;;;;;;5091841;28;20442;-79
2023/09/24 10:04:02;;;;;;;0.00;0.00;;;18.90;99.90;;;;;;5091797;28;20518;-80
2023/09/24 10:06:29;;;;;;;0.00;0.00;;;18.10;99.90;;;;;;5096810;28;20180;-80
2023/09/24 10:08:55;;;;;;;0.00;0.00;;;17.60;99.90;;;;;;5089890;28;20451;-80
2023/09/24 10:11:44;;;;;;;0.00;0.00;;;17.70;99.90;;;;;;5089895;28;20464;-80
2023/09/24 10:14:09;;;;;;;0.00;0.00;;;18.10;99.90;;;;;;5060168;28;20229;-80
2023/09/24 10:16:37;;;;;;;0.00;0.00;;;18.70;99.90;;;;;;5103125;28;20442;-79
2023/09/24 10:19:07;;;;;;;0.00;0.00;;;19.00;99.90;;;;;;5099444;28;20236;-81
2023/09/24 10:21:35;;;;;;;0.00;0.00;;;19.30;99.90;;;;;;5102728;28;20918;-80
2023/09/24 10:24:10;;;;;;;0.00;0.00;;;19.20;99.90;;;;;;5094792;28;20442;-79
2023/09/24 10:27:04;;;;;;;0.00;0.00;;;19.30;99.90;;;;;;5072714;28;20537;-79
2023/09/24 10:29:55;;;;;;;0.00;0.00;;;19.60;99.90;;;;;;5091707;28;20430;-81
2023/09/24 10:32:22;;;;;;;0.00;0.00;;;19.80;99.90;;;;;;5091275;28;20508;-81
2023/09/24 10:34:54;;;;;;;0.00;0.00;;;20.50;99.90;;;;;;5092264;28;20487;-82
2023/09/24 10:37:26;;;;;;;0.00;0.00;;;20.00;99.90;;;;;;5094018;28;20439;-79
2023/09/24 10:40:13;;;;;;;0.00;0.00;;;20.30;99.90;;;;;;5072804;28;20466;-78
2023/09/24 10:42:41;;;;;;;0.00;0.00;;;20.40;99.90;;;;;;5098203;28;20439;-80
2023/09/24 10:45:07;;;;;;;0.00;0.00;;;20.70;99.90;;;;;;5065899;28;21092;-80
2023/09/24 10:47:41;;;;;;;0.00;0.00;;;20.90;99.90;;;;;;5104741;27;20450;-78
2023/09/24 10:50:09;;;;;;;0.00;0.00;;;20.80;99.90;;;;;;5068631;28;20196;-80
2023/09/24 10:52:50;;;;;;;0.00;0.00;;;21.60;99.90;;;;;;5077687;28;20430;-80
2023/09/24 10:55:17;;;;;;;0.00;0.00;;;21.30;99.90;;;;;;5079123;28;20478;-80
2023/09/24 10:57:53;;;;;;;0.00;0.00;;;21.40;99.90;;;;;;5086809;28;20424;-82
2023/09/24 11:00:20;;;;;;;0.00;0.00;;;22.10;99.90;;;;;;5088894;28;20470;-82
2023/09/24 11:02:53;;;;;;;0.00;0.00;;;21.90;99.90;;;;;;5062858;28;20490;-81
2023/09/24 11:05:19;;;;;;;0.00;0.00;;;21.20;99.90;;;;;;5074025;28;20439;-81
2023/09/24 11:07:45;;;;;;;0.00;0.00;;;21.60;99.90;;;;;;5093346;28;20990;-80
2023/09/24 11:10:10;;;;;;;0.00;0.00;;;21.70;99.90;;;;;;5084809;28;20192;-80
2023/09/24 11:12:36;;;;;;;0.00;0.00;;;20.80;99.90;;;;;;5088343;28;20181;-81
2023/09/24 11:15:02;;;;;;;0.00;0.00;;;20.80;99.90;;;;;;5088607;28;20220;-80
2023/09/24 11:17:28;;;;;;;0.00;0.00;;;21.40;99.90;;;;;;5069671;28;20743;-80
2023/09/24 11:19:54;;;;;;;0.00;0.00;;;21.90;99.90;;;;;;5091130;28;20819;-81
2023/09/24 11:22:24;;;;;;;0.00;0.00;;;21.80;99.90;;;;;;5092107;28;20181;-80
2023/09/24 11:25:13;;;;;;;0.00;0.00;;;21.80;99.90;;;;;;5086977;28;20196;-79
2023/09/24 11:27:47;;;;;;;0.00;0.00;;;21.80;99.90;;;;;;5087969;28;20427;-82
2023/09/24 11:30:15;;;;;;;0.00;0.00;;;22.00;99.90;;;;;;5093773;28;20483;-81
2023/09/24 11:32:48;;;;;;;0.00;0.00;;;21.00;99.90;;;;;;5096573;28;20442;-82
2023/09/24 11:35:15;;;;;;;0.00;0.00;;;20.50;99.90;;;;;;5089750;28;20564;-83
2023/09/24 11:37:46;;;;;;;0.00;0.00;;;20.60;99.90;;;;;;5103510;28;20501;-83
2023/09/24 11:40:24;;;;;;;0.00;0.00;;;21.80;99.90;;;;;;5106518;28;20445;-82
2023/09/24 11:42:54;;;;;;;0.00;0.00;;;22.10;99.90;;;;;;5105491;28;20579;-81
2023/09/24 11:45:35;;;;;;;0.00;0.00;;;23.00;99.90;;;;;;5092640;28;20415;-83
2023/09/24 11:48:02;;;;;;;0.00;0.00;;;23.40;99.90;;;;;;5097309;28;21030;-83
2023/09/24 11:50:28;;;;;;;0.00;0.00;;;23.80;99.90;;;;;;5075206;28;20915;-83
2023/09/24 11:52:54;;;;;;;0.00;0.00;;;24.30;99.90;;;;;;5074159;28;20458;-78
2023/09/24 11:55:19;;;;;;;0.00;0.00;;;24.20;99.90;;;;;;5091436;28;20227;-81
2023/09/24 11:57:45;;;;;;;0.00;0.00;;;22.90;99.90;;;;;;5098549;28;20223;-83
2023/09/24 12:00:12;;;;;;;0.00;0.00;;;23.90;99.90;;;;;;5106538;28;20227;-80
2023/09/24 12:02:38;;;;;;;0.00;0.00;;;23.80;99.90;;;;;;5106254;28;20842;-82
2023/09/24 12:05:04;;;;;;;0.00;0.00;;;23.60;99.90;;;;;;5096692;28;20486;-81
2023/09/24 12:07:32;;;;;;;0.00;0.00;;;22.80;99.90;;;;;;5102589;28;20212;-81
2023/09/24 12:09:57;;;;;;;0.00;0.00;;;21.80;99.90;;;;;;5100624;28;20196;-81
2023/09/24 12:12:23;;;;;;;0.00;0.00;;;21.60;99.90;;;;;;5091374;28;20437;-81
2023/09/24 12:14:48;;;;;;;0.00;0.00;;;21.20;99.90;;;;;;5091145;28;20274;-81
2023/09/24 12:17:14;;;;;;;0.00;0.00;;;20.80;99.90;;;;;;5097089;28;20216;-80
2023/09/24 12:19:39;;;;;;;0.00;0.00;;;20.60;99.90;;;;;;5096032;28;20192;-81
2023/09/24 12:22:05;;;;;;;0.00;0.00;;;20.80;99.90;;;;;;5098137;28;20247;-83
2023/09/24 12:24:30;;;;;;;0.00;0.00;;;20.50;99.90;;;;;;5083266;28;20853;-83
2023/09/24 12:26:56;;;;;;;0.00;0.00;;;21.50;99.90;;;;;;5108286;28;20648;-80
2023/09/24 12:29:21;;;;;;;0.00;0.00;;;22.30;99.90;;;;;;5094482;28;20606;-82
2023/09/24 12:31:47;;;;;;;0.00;0.00;;;21.50;99.90;;;;;;5088980;28;20210;-82
2023/09/24 12:34:12;;;;;;;0.00;0.00;;;20.50;99.90;;;;;;5096504;28;20193;-81
2023/09/24 12:36:38;;;;;;;0.00;0.00;;;19.90;99.90;;;;;;5090171;28;20185;-84
2023/09/24 12:39:03;;;;;;;0.00;0.00;;;20.40;99.90;;;;;;5072142;28;20180;-81
2023/09/24 12:41:29;;;;;;;0.00;0.00;;;21.00;99.90;;;;;;5104028;28;20212;-82
2023/09/24 12:43:55;;;;;;;0.00;0.00;;;21.00;99.90;;;;;;5091845;28;20657;-83
2023/09/24 12:46:21;;;;;;;0.00;0.00;;;20.60;99.90;;;;;;5077946;28;20187;-82
2023/09/24 12:48:46;;;;;;;0.00;0.00;;;21.80;99.90;;;;;;5101747;28;20446;-83